sensor_id;sensor_type;location;lat;lon;timestamp;pressure;altitude;pressure_sealevel;temperature;humidity
11808;BME280;5961;42.640;23.380;2023-11-19T00:02:26;93950.53;;;3.57;90.84
11808;BME280;5961;42.640;23.380;2023-11-19T00:04:53;93968.94;;;3.57;90.91
11808;BME280;5961;42.640;23.380;2023-11-19T00:07:20;93957.75;;;3.51;90.23
11808;BME280;5961;42.640;23.380;2023-11-19T00:09:46;93944.59;;;3.51;90.58
11808;BME280;5961;42.640;23.380;2023-11-19T00:12:13;93967.66;;;3.54;90.20
11808;BME280;5961;42.640;23.380;2023-11-19T00:14:40;93945.28;;;3.43;90.26
11808;BME280;5961;42.640;23.380;2023-11-19T00:17:07;93991.91;;;3.51;89.87
11808;BME280;5961;42.640;23.380;2023-11-19T00:19:35;93984.53;;;3.53;90.14
11808;BME280;5961;42.640;23.380;2023-11-19T00:22:02;93979.28;;;3.53;89.61
11808;BME280;5961;42.640;23.380;2023-11-19T00:24:29;93967.56;;;3.46;89.49
11808;BME280;5961;42.640;23.380;2023-11-19T00:26:57;93969.34;;;3.50;89.51
11808;BME280;5961;42.640;23.380;2023-11-19T00:29:24;93967.66;;;3.54;89.08
11808;BME280;5961;42.640;23.380;2023-11-19T00:31:50;93976.34;;;3.55;89.57
11808;BME280;5961;42.640;23.380;2023-11-19T00:34:17;93994.13;;;3.44;89.04
11808;BME280;5961;42.640;23.380;2023-11-19T00:36:48;93964.56;;;3.52;89.32
11808;BME280;5961;42.640;23.380;2023-11-19T00:39:15;93975.84;;;3.53;89.93
11808;BME280;5961;42.640;23.380;2023-11-19T00:41:43;93992.69;;;3.52;89.09
11808;BME280;5961;42.640;23.380;2023-11-19T00:44:11;93995.78;;;3.54;89.28
11808;BME280;5961;42.640;23.380;2023-11-19T00:46:38;93975.06;;;3.52;89.63
11808;BME280;5961;42.640;23.380;2023-11-19T00:49:05;93948.38;;;3.31;89.69
11808;BME280;5961;42.640;23.380;2023-11-19T00:51:32;94032.88;;;3.52;89.45
11808;BME280;5961;42.640;23.380;2023-11-19T00:54:00;93983.81;;;3.48;89.49
11808;BME280;5961;42.640;23.380;2023-11-19T00:56:27;93999.19;;;3.54;89.64
11808;BME280;5961;42.640;23.380;2023-11-19T00:58:54;93977.59;;;3.44;89.24
11808;BME280;5961;42.640;23.380;2023-11-19T01:01:22;93974.19;;;3.43;89.75
11808;BME280;5961;42.640;23.380;2023-11-19T01:03:48;93984.47;;;3.40;89.71
11808;BME280;5961;42.640;23.380;2023-11-19T01:06:26;94017.47;;;3.46;89.83
11808;BME280;5961;42.640;23.380;2023-11-19T01:08:53;93995.63;;;3.50;89.99
11808;BME280;5961;42.640;23.380;2023-11-19T01:11:22;93986.16;;;3.49;90.24
11808;BME280;5961;42.640;23.380;2023-11-19T01:13:49;94033.94;;;3.51;90.07
11808;BME280;5961;42.640;23.380;2023-11-19T01:16:16;93994.13;;;3.44;90.11
11808;BME280;5961;42.640;23.380;2023-11-19T01:18:44;93975.78;;;3.25;89.97
11808;BME280;5961;42.640;23.380;2023-11-19T01:21:11;93992.00;;;3.46;89.74
11808;BME280;5961;42.640;23.380;2023-11-19T01:23:40;93985.16;;;3.45;90.25
11808;BME280;5961;42.640;23.380;2023-11-19T01:26:08;93975.25;;;3.42;90.26
11808;BME280;5961;42.640;23.380;2023-11-19T01:28:37;94017.22;;;3.47;89.99
11808;BME280;5961;42.640;23.380;2023-11-19T01:31:04;93939.97;;;3.16;89.69
11808;BME280;5961;42.640;23.380;2023-11-19T01:33:32;93980.44;;;3.47;89.83
11808;BME280;5961;42.640;23.380;2023-11-19T01:35:58;94008.75;;;3.50;89.60
11808;BME280;5961;42.640;23.380;2023-11-19T01:38:25;94005.59;;;3.48;89.96
11808;BME280;5961;42.640;23.380;2023-11-19T01:40:55;93986.56;;;3.56;89.68
11808;BME280;5961;42.640;23.380;2023-11-19T01:43:33;94018.16;;;3.51;89.46
11808;BME280;5961;42.640;23.380;2023-11-19T01:46:01;93977.22;;;3.50;88.98
11808;BME280;5961;42.640;23.380;2023-11-19T01:48:29;94000.09;;;3.50;88.64
11808;BME280;5961;42.640;23.380;2023-11-19T01:50:56;94012.91;;;3.51;88.76
11808;BME280;5961;42.640;23.380;2023-11-19T01:53:24;93980.91;;;3.49;88.89
11808;BME280;5961;42.640;23.380;2023-11-19T01:55:51;93964.81;;;3.37;88.45
11808;BME280;5961;42.640;23.380;2023-11-19T01:58:19;93973.69;;;3.41;88.58
11808;BME280;5961;42.640;23.380;2023-11-19T02:00:46;93994.28;;;3.34;88.46
11808;BME280;5961;42.640;23.380;2023-11-19T02:03:14;93996.44;;;3.32;88.26
11808;BME280;5961;42.640;23.380;2023-11-19T02:05:41;94000.44;;;3.43;87.84
11808;BME280;5961;42.640;23.380;2023-11-19T02:08:08;93994.72;;;3.41;87.36
11808;BME280;5961;42.640;23.380;2023-11-19T02:10:35;93982.44;;;3.37;87.47
11808;BME280;5961;42.640;23.380;2023-11-19T02:13:02;93983.22;;;3.37;87.53
11808;BME280;5961;42.640;23.380;2023-11-19T02:15:31;93951.84;;;3.27;87.36
11808;BME280;5961;42.640;23.380;2023-11-19T02:18:21;93941.13;;;3.23;87.44
11808;BME280;5961;42.640;23.380;2023-11-19T02:20:48;93958.25;;;3.21;87.51
11808;BME280;5961;42.640;23.380;2023-11-19T02:23:16;93979.97;;;3.26;87.88
11808;BME280;5961;42.640;23.380;2023-11-19T02:25:47;93979.25;;;3.21;87.66
11808;BME280;5961;42.640;23.380;2023-11-19T02:28:16;93973.53;;;3.19;87.71
11808;BME280;5961;42.640;23.380;2023-11-19T02:30:43;93978.69;;;3.24;87.15
11808;BME280;5961;42.640;23.380;2023-11-19T02:33:10;93984.03;;;3.19;87.47
11808;BME280;5961;42.640;23.380;2023-11-19T02:35:38;93989.28;;;3.19;87.21
11808;BME280;5961;42.640;23.380;2023-11-19T02:38:06;93998.72;;;3.20;87.18
11808;BME280;5961;42.640;23.380;2023-11-19T02:40:33;93998.72;;;3.20;87.42
11808;BME280;5961;42.640;23.380;2023-11-19T02:43:00;93967.22;;;3.20;87.61
11808;BME280;5961;42.640;23.380;2023-11-19T02:45:31;93976.03;;;3.10;87.37
11808;BME280;5961;42.640;23.380;2023-11-19T02:47:58;93991.34;;;3.22;87.14
11808;BME280;5961;42.640;23.380;2023-11-19T02:50:27;93995.03;;;3.21;87.26
11808;BME280;5961;42.640;23.380;2023-11-19T02:52:54;93988.81;;;3.17;87.41
11808;BME280;5961;42.640;23.380;2023-11-19T02:55:22;93980.63;;;3.18;87.23
11808;BME280;5961;42.640;23.380;2023-11-19T02:57:50;93991.53;;;3.25;87.23
11808;BME280;5961;42.640;23.380;2023-11-19T03:00:19;93990.66;;;3.30;86.80
11808;BME280;5961;42.640;23.380;2023-11-19T03:02:50;93964.06;;;3.04;86.74
11808;BME280;5961;42.640;23.380;2023-11-19T03:05:24;93986.28;;;3.25;87.32
11808;BME280;5961;42.640;23.380;2023-11-19T03:07:51;93998.44;;;3.21;87.09
11808;BME280;5961;42.640;23.380;2023-11-19T03:10:18;93986.00;;;3.27;86.79
11808;BME280;5961;42.640;23.380;2023-11-19T03:12:45;93982.41;;;3.23;86.84
11808;BME280;5961;42.640;23.380;2023-11-19T03:15:12;94001.47;;;3.28;86.38
11808;BME280;5961;42.640;23.380;2023-11-19T03:17:40;94000.00;;;3.22;86.68
11808;BME280;5961;42.640;23.380;2023-11-19T03:20:10;94033.16;;;3.18;86.82
11808;BME280;5961;42.640;23.380;2023-11-19T03:22:40;93979.28;;;3.02;87.05
11808;BME280;5961;42.640;23.380;2023-11-19T03:25:08;93995.03;;;3.21;87.28
11808;BME280;5961;42.640;23.380;2023-11-19T03:27:35;94013.91;;;3.23;87.28
11808;BME280;5961;42.640;23.380;2023-11-19T03:30:02;94020.34;;;3.30;87.00
11808;BME280;5961;42.640;23.380;2023-11-19T03:32:30;93988.00;;;3.16;86.77
11808;BME280;5961;42.640;23.380;2023-11-19T03:34:58;94005.72;;;3.24;87.14
11808;BME280;5961;42.640;23.380;2023-11-19T03:37:26;94020.72;;;3.24;87.21
11808;BME280;5961;42.640;23.380;2023-11-19T03:39:53;93988.88;;;3.12;86.85
11808;BME280;5961;42.640;23.380;2023-11-19T03:42:23;94032.47;;;3.26;86.52
11808;BME280;5961;42.640;23.380;2023-11-19T03:44:51;94009.16;;;3.25;86.60
11808;BME280;5961;42.640;23.380;2023-11-19T03:47:18;94050.13;;;3.26;86.41
11808;BME280;5961;42.640;23.380;2023-11-19T03:49:47;94032.78;;;3.25;86.96
11808;BME280;5961;42.640;23.380;2023-11-19T03:52:15;94038.53;;;3.27;86.44
11808;BME280;5961;42.640;23.380;2023-11-19T03:54:43;94044.28;;;3.29;86.56
11808;BME280;5961;42.640;23.380;2023-11-19T03:57:11;94024.13;;;3.24;86.99
11808;BME280;5961;42.640;23.380;2023-11-19T03:59:38;94027.44;;;3.30;87.18
11808;BME280;5961;42.640;23.380;2023-11-19T04:02:04;94021.22;;;3.26;86.38
11808;BME280;5961;42.640;23.380;2023-11-19T04:04:31;94026.13;;;3.14;86.64
11808;BME280;5961;42.640;23.380;2023-11-19T04:07:00;94041.22;;;3.22;86.99
11808;BME280;5961;42.640;23.380;2023-11-19T04:09:28;94019.16;;;3.23;86.84
11808;BME280;5961;42.640;23.380;2023-11-19T04:11:56;94050.50;;;3.33;86.89
11808;BME280;5961;42.640;23.380;2023-11-19T04:14:23;94072.88;;;3.30;87.06
11808;BME280;5961;42.640;23.380;2023-11-19T04:16:50;94051.28;;;3.33;86.98
11808;BME280;5961;42.640;23.380;2023-11-19T04:19:17;94041.16;;;3.27;87.43
11808;BME280;5961;42.640;23.380;2023-11-19T04:21:44;94024.56;;;3.13;87.72
11808;BME280;5961;42.640;23.380;2023-11-19T04:24:11;94029.09;;;3.26;87.67
11808;BME280;5961;42.640;23.380;2023-11-19T04:26:40;94068.56;;;3.21;87.32
11808;BME280;5961;42.640;23.380;2023-11-19T04:29:09;94074.88;;;3.20;87.32
11808;BME280;5961;42.640;23.380;2023-11-19T04:31:36;94040.03;;;3.14;87.34
11808;BME280;5961;42.640;23.380;2023-11-19T04:34:03;94046.75;;;3.20;87.06
11808;BME280;5961;42.640;23.380;2023-11-19T04:36:31;94047.84;;;3.19;87.61
11808;BME280;5961;42.640;23.380;2023-11-19T04:38:58;94058.63;;;3.18;87.08
11808;BME280;5961;42.640;23.380;2023-11-19T04:41:26;94060.97;;;3.19;87.04
11808;BME280;5961;42.640;23.380;2023-11-19T04:43:53;94039.97;;;3.19;86.51
11808;BME280;5961;42.640;23.380;2023-11-19T04:46:21;94046.06;;;3.15;86.87
11808;BME280;5961;42.640;23.380;2023-11-19T04:48:49;94044.34;;;3.24;87.03
11808;BME280;5961;42.640;23.380;2023-11-19T04:51:15;94056.41;;;3.25;86.84
11808;BME280;5961;42.640;23.380;2023-11-19T04:53:42;94045.44;;;3.23;86.49
11808;BME280;5961;42.640;23.380;2023-11-19T04:56:10;94045.22;;;3.19;86.39
11808;BME280;5961;42.640;23.380;2023-11-19T04:58:37;94081.19;;;3.19;86.23
11808;BME280;5961;42.640;23.380;2023-11-19T05:01:04;94073.81;;;3.21;86.12
11808;BME280;5961;42.640;23.380;2023-11-19T05:03:33;94050.81;;;3.13;86.71
11808;BME280;5961;42.640;23.380;2023-11-19T05:06:00;94039.06;;;3.10;86.53
11808;BME280;5961;42.640;23.380;2023-11-19T05:08:27;94064.59;;;3.05;86.32
11808;BME280;5961;42.640;23.380;2023-11-19T05:10:54;94100.16;;;3.16;86.62
11808;BME280;5961;42.640;23.380;2023-11-19T05:13:22;94099.13;;;3.12;85.80
11808;BME280;5961;42.640;23.380;2023-11-19T05:15:49;94069.34;;;3.03;86.16
11808;BME280;5961;42.640;23.380;2023-11-19T05:18:16;94092.19;;;3.02;85.83
11808;BME280;5961;42.640;23.380;2023-11-19T05:20:44;94089.84;;;3.01;85.85
11808;BME280;5961;42.640;23.380;2023-11-19T05:23:11;94092.97;;;3.03;86.18
11808;BME280;5961;42.640;23.380;2023-11-19T05:25:38;94097.44;;;3.02;86.37
11808;BME280;5961;42.640;23.380;2023-11-19T05:28:05;94079.34;;;3.01;86.07
11808;BME280;5961;42.640;23.380;2023-11-19T05:30:31;94088.28;;;3.00;85.98
11808;BME280;5961;42.640;23.380;2023-11-19T05:32:58;94076.25;;;2.99;86.20
11808;BME280;5961;42.640;23.380;2023-11-19T05:35:26;94089.28;;;3.04;86.36
11808;BME280;5961;42.640;23.380;2023-11-19T05:37:54;94110.78;;;3.06;86.16
11808;BME280;5961;42.640;23.380;2023-11-19T05:40:21;94103.47;;;3.03;86.35
11808;BME280;5961;42.640;23.380;2023-11-19T05:42:48;94100.28;;;3.06;86.43
11808;BME280;5961;42.640;23.380;2023-11-19T05:45:15;94091.03;;;3.08;86.29
11808;BME280;5961;42.640;23.380;2023-11-19T05:47:42;94131.28;;;3.04;86.09
11808;BME280;5961;42.640;23.380;2023-11-19T05:50:09;94103.13;;;3.09;86.25
11808;BME280;5961;42.640;23.380;2023-11-19T05:52:36;94117.94;;;3.00;86.23
11808;BME280;5961;42.640;23.380;2023-11-19T05:55:05;94057.34;;;2.97;86.13
11808;BME280;5961;42.640;23.380;2023-11-19T05:57:35;94087.38;;;3.09;86.32
11808;BME280;5961;42.640;23.380;2023-11-19T06:00:02;94079.22;;;3.11;86.55
11808;BME280;5961;42.640;23.380;2023-11-19T06:02:32;94097.25;;;2.99;86.08
11808;BME280;5961;42.640;23.380;2023-11-19T06:04:59;94077.75;;;2.81;86.50
11808;BME280;5961;42.640;23.380;2023-11-19T06:07:26;94108.94;;;3.06;86.57
11808;BME280;5961;42.640;23.380;2023-11-19T06:09:53;94106.66;;;3.00;86.40
11808;BME280;5961;42.640;23.380;2023-11-19T06:12:21;94132.41;;;2.98;86.24
11808;BME280;5961;42.640;23.380;2023-11-19T06:14:48;94114.53;;;3.00;86.52
11808;BME280;5961;42.640;23.380;2023-11-19T06:17:15;94102.97;;;3.01;86.95
11808;BME280;5961;42.640;23.380;2023-11-19T06:19:41;94103.81;;;2.96;86.81
11808;BME280;5961;42.640;23.380;2023-11-19T06:22:08;94107.09;;;3.07;87.14
11808;BME280;5961;42.640;23.380;2023-11-19T06:24:35;94074.44;;;2.94;86.74
11808;BME280;5961;42.640;23.380;2023-11-19T06:27:02;94112.69;;;3.00;86.31
11808;BME280;5961;42.640;23.380;2023-11-19T06:29:31;94102.25;;;2.95;86.89
11808;BME280;5961;42.640;23.380;2023-11-19T06:31:58;94131.06;;;3.00;87.07
11808;BME280;5961;42.640;23.380;2023-11-19T06:34:24;94094.09;;;2.97;86.75
11808;BME280;5961;42.640;23.380;2023-11-19T06:36:51;94094.44;;;2.90;87.41
11808;BME280;5961;42.640;23.380;2023-11-19T06:39:18;94088.50;;;3.03;87.22
11808;BME280;5961;42.640;23.380;2023-11-19T06:41:45;94134.97;;;3.03;86.89
11808;BME280;5961;42.640;23.380;2023-11-19T06:44:12;94121.69;;;2.94;86.97
11808;BME280;5961;42.640;23.380;2023-11-19T06:46:41;94097.50;;;2.97;86.34
11808;BME280;5961;42.640;23.380;2023-11-19T06:49:07;94105.16;;;2.94;87.08
11808;BME280;5961;42.640;23.380;2023-11-19T06:51:34;94063.63;;;2.58;86.75
11808;BME280;5961;42.640;23.380;2023-11-19T06:54:01;94148.81;;;2.90;87.12
11808;BME280;5961;42.640;23.380;2023-11-19T06:56:28;94112.63;;;2.87;87.43
11808;BME280;5961;42.640;23.380;2023-11-19T06:58:55;94108.88;;;2.93;86.58
11808;BME280;5961;42.640;23.380;2023-11-19T07:01:22;94116.00;;;2.87;87.11
11808;BME280;5961;42.640;23.380;2023-11-19T07:03:50;94115.81;;;2.84;86.56
11808;BME280;5961;42.640;23.380;2023-11-19T07:06:17;94121.72;;;2.70;87.19
11808;BME280;5961;42.640;23.380;2023-11-19T07:08:44;94132.22;;;2.70;87.58
11808;BME280;5961;42.640;23.380;2023-11-19T07:11:12;94166.56;;;2.74;87.46
11808;BME280;5961;42.640;23.380;2023-11-19T07:13:39;94148.47;;;2.72;87.50
11808;BME280;5961;42.640;23.380;2023-11-19T07:16:07;94146.22;;;2.61;87.10
11808;BME280;5961;42.640;23.380;2023-11-19T07:18:36;94133.91;;;2.61;87.32
11808;BME280;5961;42.640;23.380;2023-11-19T07:21:06;94144.41;;;2.61;87.28
11808;BME280;5961;42.640;23.380;2023-11-19T07:23:35;94244.09;;;2.61;87.40
11808;BME280;5961;42.640;23.380;2023-11-19T07:26:05;94176.22;;;2.55;87.40
11808;BME280;5961;42.640;23.380;2023-11-19T07:28:33;94151.97;;;2.63;87.14
11808;BME280;5961;42.640;23.380;2023-11-19T07:31:00;94149.19;;;2.54;87.02
11808;BME280;5961;42.640;23.380;2023-11-19T07:33:27;94156.50;;;2.57;87.05
11808;BME280;5961;42.640;23.380;2023-11-19T07:35:55;94162.47;;;2.63;87.17
11808;BME280;5961;42.640;23.380;2023-11-19T07:38:23;94176.38;;;2.63;87.21
11808;BME280;5961;42.640;23.380;2023-11-19T07:40:50;94188.50;;;2.59;87.04
11808;BME280;5961;42.640;23.380;2023-11-19T07:43:17;94234.66;;;2.60;86.96
11808;BME280;5961;42.640;23.380;2023-11-19T07:45:43;94201.66;;;2.54;86.41
11808;BME280;5961;42.640;23.380;2023-11-19T07:48:11;94160.47;;;2.55;86.02
11808;BME280;5961;42.640;23.380;2023-11-19T07:50:39;94199.00;;;2.59;85.50
11808;BME280;5961;42.640;23.380;2023-11-19T07:53:06;94148.63;;;2.34;85.52
11808;BME280;5961;42.640;23.380;2023-11-19T07:55:34;94198.53;;;2.52;85.83
11808;BME280;5961;42.640;23.380;2023-11-19T07:58:00;94175.88;;;2.38;86.00
11808;BME280;5961;42.640;23.380;2023-11-19T08:00:27;94218.50;;;2.48;85.96
11808;BME280;5961;42.640;23.380;2023-11-19T08:02:54;94178.28;;;2.58;86.05
11808;BME280;5961;42.640;23.380;2023-11-19T08:05:21;94180.56;;;2.64;85.40
11808;BME280;5961;42.640;23.380;2023-11-19T08:07:50;94181.34;;;2.65;85.59
11808;BME280;5961;42.640;23.380;2023-11-19T08:10:17;94205.69;;;2.70;85.03
11808;BME280;5961;42.640;23.380;2023-11-19T08:12:45;94185.06;;;2.35;84.95
11808;BME280;5961;42.640;23.380;2023-11-19T08:15:12;94201.50;;;2.69;84.74
11808;BME280;5961;42.640;23.380;2023-11-19T08:17:39;94224.31;;;2.69;84.54
11808;BME280;5961;42.640;23.380;2023-11-19T08:20:07;94186.72;;;2.78;84.78
11808;BME280;5961;42.640;23.380;2023-11-19T08:22:35;94168.84;;;2.81;83.93
11808;BME280;5961;42.640;23.380;2023-11-19T08:25:03;94272.88;;;2.71;83.74
11808;BME280;5961;42.640;23.380;2023-11-19T08:27:30;94210.94;;;2.70;83.79
11808;BME280;5961;42.640;23.380;2023-11-19T08:29:58;94206.25;;;2.67;84.22
11808;BME280;5961;42.640;23.380;2023-11-19T08:32:25;94214.06;;;2.72;84.63
11808;BME280;5961;42.640;23.380;2023-11-19T08:34:53;94203.69;;;2.62;85.09
11808;BME280;5961;42.640;23.380;2023-11-19T08:37:21;94242.59;;;2.55;85.00
11808;BME280;5961;42.640;23.380;2023-11-19T08:39:48;94208.38;;;2.65;85.31
11808;BME280;5961;42.640;23.380;2023-11-19T08:42:15;94200.94;;;2.72;85.29
11808;BME280;5961;42.640;23.380;2023-11-19T08:44:42;94213.00;;;2.73;85.37
11808;BME280;5961;42.640;23.380;2023-11-19T08:47:11;94190.03;;;2.65;84.86
11808;BME280;5961;42.640;23.380;2023-11-19T08:49:38;94219.28;;;2.78;84.53
11808;BME280;5961;42.640;23.380;2023-11-19T08:52:05;94226.84;;;2.79;84.80
11808;BME280;5961;42.640;23.380;2023-11-19T08:54:32;94208.66;;;2.88;84.00
11808;BME280;5961;42.640;23.380;2023-11-19T08:56:59;94209.44;;;2.88;84.11
11808;BME280;5961;42.640;23.380;2023-11-19T08:59:28;94218.56;;;2.96;83.39
11808;BME280;5961;42.640;23.380;2023-11-19T09:01:55;94237.31;;;3.08;82.57
11808;BME280;5961;42.640;23.380;2023-11-19T09:04:23;94224.13;;;3.13;81.38
11808;BME280;5961;42.640;23.380;2023-11-19T09:06:50;94231.94;;;3.18;80.94
11808;BME280;5961;42.640;23.380;2023-11-19T09:09:17;94199.09;;;2.97;81.40
11808;BME280;5961;42.640;23.380;2023-11-19T09:11:44;94155.34;;;2.92;81.33
11808;BME280;5961;42.640;23.380;2023-11-19T09:14:11;94200.94;;;3.20;80.92
11808;BME280;5961;42.640;23.380;2023-11-19T09:16:38;94194.94;;;3.14;80.93
11808;BME280;5961;42.640;23.380;2023-11-19T09:19:05;94215.63;;;3.21;81.17
11808;BME280;5961;42.640;23.380;2023-11-19T09:21:33;94191.94;;;3.26;81.06
11808;BME280;5961;42.640;23.380;2023-11-19T09:24:03;94195.84;;;3.28;81.29
11808;BME280;5961;42.640;23.380;2023-11-19T09:26:30;94181.22;;;3.22;81.34
11808;BME280;5961;42.640;23.380;2023-11-19T09:28:57;94209.22;;;3.27;81.40
11808;BME280;5961;42.640;23.380;2023-11-19T09:31:24;94205.06;;;3.26;81.35
11808;BME280;5961;42.640;23.380;2023-11-19T09:33:51;94183.97;;;3.31;81.06
11808;BME280;5961;42.640;23.380;2023-11-19T09:36:17;94188.09;;;3.37;80.55
11808;BME280;5961;42.640;23.380;2023-11-19T09:38:46;94239.69;;;3.28;81.01
11808;BME280;5961;42.640;23.380;2023-11-19T09:41:13;94189.00;;;3.27;80.44
11808;BME280;5961;42.640;23.380;2023-11-19T09:43:40;94170.34;;;3.29;80.58
11808;BME280;5961;42.640;23.380;2023-11-19T09:46:09;94153.03;;;3.28;80.65
11808;BME280;5961;42.640;23.380;2023-11-19T09:48:37;94161.22;;;3.03;81.04
11808;BME280;5961;42.640;23.380;2023-11-19T09:51:06;94130.50;;;3.03;81.66
11808;BME280;5961;42.640;23.380;2023-11-19T09:53:33;94149.34;;;3.29;80.79
11808;BME280;5961;42.640;23.380;2023-11-19T09:56:01;94118.41;;;3.26;81.12
11808;BME280;5961;42.640;23.380;2023-11-19T09:58:29;94139.91;;;3.28;81.80
11808;BME280;5961;42.640;23.380;2023-11-19T10:00:57;94125.97;;;3.27;82.26
11808;BME280;5961;42.640;23.380;2023-11-19T10:03:26;94131.00;;;3.24;82.61
11808;BME280;5961;42.640;23.380;2023-11-19T10:05:54;94110.22;;;3.27;82.02
11808;BME280;5961;42.640;23.380;2023-11-19T10:08:21;94112.28;;;3.30;82.46
11808;BME280;5961;42.640;23.380;2023-11-19T10:10:48;94113.16;;;3.26;81.76
11808;BME280;5961;42.640;23.380;2023-11-19T10:13:18;94118.97;;;3.23;82.01
11808;BME280;5961;42.640;23.380;2023-11-19T10:15:45;94079.34;;;3.19;82.48
11808;BME280;5961;42.640;23.380;2023-11-19T10:18:14;94100.84;;;3.21;82.58
11808;BME280;5961;42.640;23.380;2023-11-19T10:20:41;94139.53;;;3.16;82.38
11808;BME280;5961;42.640;23.380;2023-11-19T10:23:09;94110.53;;;3.26;82.65
11808;BME280;5961;42.640;23.380;2023-11-19T10:25:36;94102.25;;;3.32;82.61
11808;BME280;5961;42.640;23.380;2023-11-19T10:28:03;94096.16;;;3.37;81.98
11808;BME280;5961;42.640;23.380;2023-11-19T10:30:31;94173.34;;;3.41;80.72
11808;BME280;5961;42.640;23.380;2023-11-19T10:33:03;94076.38;;;3.26;80.67
11808;BME280;5961;42.640;23.380;2023-11-19T10:35:31;94100.88;;;3.54;80.61
11808;BME280;5961;42.640;23.380;2023-11-19T10:37:59;94119.34;;;3.67;80.27
11808;BME280;5961;42.640;23.380;2023-11-19T10:40:37;94104.41;;;3.81;79.25
11808;BME280;5961;42.640;23.380;2023-11-19T10:43:08;94114.69;;;3.78;78.90
11808;BME280;5961;42.640;23.380;2023-11-19T10:45:44;94111.19;;;4.01;78.40
11808;BME280;5961;42.640;23.380;2023-11-19T10:48:11;94127.66;;;4.07;77.97
11808;BME280;5961;42.640;23.380;2023-11-19T10:50:39;94125.81;;;4.21;77.86
11808;BME280;5961;42.640;23.380;2023-11-19T10:53:07;94101.50;;;4.29;77.61
11808;BME280;5961;42.640;23.380;2023-11-19T10:55:36;94115.97;;;4.26;76.29
11808;BME280;5961;42.640;23.380;2023-11-19T10:58:04;94129.03;;;4.18;76.23
11808;BME280;5961;42.640;23.380;2023-11-19T11:00:38;94098.75;;;4.34;76.63
11808;BME280;5961;42.640;23.380;2023-11-19T11:03:11;94120.69;;;4.43;76.66
11808;BME280;5961;42.640;23.380;2023-11-19T11:05:42;94107.06;;;4.41;76.31
11808;BME280;5961;42.640;23.380;2023-11-19T11:08:09;94114.66;;;4.56;76.11
11808;BME280;5961;42.640;23.380;2023-11-19T11:10:40;94136.50;;;4.70;74.92
11808;BME280;5961;42.640;23.380;2023-11-19T11:13:10;94103.34;;;4.83;74.28
11808;BME280;5961;42.640;23.380;2023-11-19T11:15:37;94099.22;;;4.90;73.89
11808;BME280;5961;42.640;23.380;2023-11-19T11:18:06;94088.97;;;5.03;74.12
11808;BME280;5961;42.640;23.380;2023-11-19T11:20:36;94088.16;;;5.16;72.56
11808;BME280;5961;42.640;23.380;2023-11-19T11:23:24;94099.09;;;5.09;72.67
11808;BME280;5961;42.640;23.380;2023-11-19T11:26:09;94092.97;;;5.14;72.44
11808;BME280;5961;42.640;23.380;2023-11-19T11:28:44;94111.75;;;5.21;72.04
11808;BME280;5961;42.640;23.380;2023-11-19T11:31:25;94114.00;;;5.27;71.15
11808;BME280;5961;42.640;23.380;2023-11-19T11:34:09;94091.91;;;5.37;71.57
11808;BME280;5961;42.640;23.380;2023-11-19T11:36:49;94090.72;;;5.43;71.39
11808;BME280;5961;42.640;23.380;2023-11-19T11:39:22;94107.06;;;5.53;70.74
11808;BME280;5961;42.640;23.380;2023-11-19T11:42:32;94103.75;;;5.62;70.23
11808;BME280;5961;42.640;23.380;2023-11-19T11:44:59;94083.38;;;5.76;70.04
11808;BME280;5961;42.640;23.380;2023-11-19T11:50:27;94073.00;;;6.01;68.43
11808;BME280;5961;42.640;23.380;2023-11-19T11:53:16;94073.91;;;6.28;68.08
11808;BME280;5961;42.640;23.380;2023-11-19T11:55:56;94087.56;;;6.60;67.26
11808;BME280;5961;42.640;23.380;2023-11-19T11:58:31;94077.22;;;6.81;65.70
11808;BME280;5961;42.640;23.380;2023-11-19T12:01:00;94090.78;;;7.05;64.58
11808;BME280;5961;42.640;23.380;2023-11-19T12:03:28;94076.34;;;7.11;63.55
11808;BME280;5961;42.640;23.380;2023-11-19T12:05:55;94087.41;;;7.48;62.64
11808;BME280;5961;42.640;23.380;2023-11-19T12:08:27;94107.81;;;7.64;62.18
11808;BME280;5961;42.640;23.380;2023-11-19T12:10:55;94096.13;;;7.91;60.96
11808;BME280;5961;42.640;23.380;2023-11-19T12:13:27;94072.56;;;8.15;60.18
11808;BME280;5961;42.640;23.380;2023-11-19T12:16:08;94071.47;;;8.34;58.86
11808;BME280;5961;42.640;23.380;2023-11-19T12:18:38;94065.00;;;8.52;58.22
11808;BME280;5961;42.640;23.380;2023-11-19T12:21:06;94051.66;;;8.98;57.33
11808;BME280;5961;42.640;23.380;2023-11-19T12:23:44;94054.63;;;9.47;56.13
11808;BME280;5961;42.640;23.380;2023-11-19T12:26:21;94060.47;;;9.93;54.15
11808;BME280;5961;42.640;23.380;2023-11-19T12:28:58;93996.44;;;10.07;52.17
11808;BME280;5961;42.640;23.380;2023-11-19T12:31:25;94052.78;;;10.82;50.55
11808;BME280;5961;42.640;23.380;2023-11-19T12:33:52;94032.63;;;11.05;49.67
11808;BME280;5961;42.640;23.380;2023-11-19T12:36:19;94027.44;;;11.36;48.76
11808;BME280;5961;42.640;23.380;2023-11-19T12:38:47;94036.59;;;11.63;47.99
11808;BME280;5961;42.640;23.380;2023-11-19T12:41:15;94015.84;;;11.96;46.87
11808;BME280;5961;42.640;23.380;2023-11-19T12:43:46;94017.19;;;12.34;45.60
11808;BME280;5961;42.640;23.380;2023-11-19T12:46:20;94034.91;;;12.57;45.18
11808;BME280;5961;42.640;23.380;2023-11-19T12:48:47;94023.44;;;12.73;44.20
11808;BME280;5961;42.640;23.380;2023-11-19T12:51:14;94011.25;;;12.87;44.26
11808;BME280;5961;42.640;23.380;2023-11-19T12:53:50;94012.03;;;12.72;43.66
11808;BME280;5961;42.640;23.380;2023-11-19T12:56:19;93995.69;;;12.42;44.62
11808;BME280;5961;42.640;23.380;2023-11-19T12:58:47;93962.59;;;12.12;45.21
11808;BME280;5961;42.640;23.380;2023-11-19T13:01:17;94001.44;;;12.29;45.75
11808;BME280;5961;42.640;23.380;2023-11-19T13:03:44;94004.81;;;12.41;45.52
11808;BME280;5961;42.640;23.380;2023-11-19T13:06:13;94008.75;;;12.32;45.49
11808;BME280;5961;42.640;23.380;2023-11-19T13:08:41;94005.94;;;12.56;45.02
11808;BME280;5961;42.640;23.380;2023-11-19T13:11:12;94006.44;;;12.77;44.62
11808;BME280;5961;42.640;23.380;2023-11-19T13:13:54;94012.09;;;12.91;43.63
11808;BME280;5961;42.640;23.380;2023-11-19T13:16:20;93991.16;;;13.09;43.51
11808;BME280;5961;42.640;23.380;2023-11-19T13:18:47;94003.16;;;13.34;43.29
11808;BME280;5961;42.640;23.380;2023-11-19T13:21:14;94010.63;;;13.63;42.69